Time;durP1;ratioP1;P1;durP2;ratioP2;P2;SDS_P1;SDS_P2;PMS_P1;PMS_P2;Temp;Humidity;BMP_temperature;BMP_pressure;BME280_temperature;BME280_humidity;BME280_pressure;Samples;Min_cycle;Max_cycle;Signal;HPM_P1;HPM_P2
2024/02/24 00:01:02;;;;;;;6.70;6.40;;;7.30;19.70;;;;;;4950657;29;20520;-80
2024/02/24 00:03:28;;;;;;;7.03;6.53;;;7.10;19.80;;;;;;4948281;29;20194;-79
2024/02/24 00:05:53;;;;;;;7.13;6.63;;;7.10;20.30;;;;;;4924614;29;20189;-82
2024/02/24 00:08:25;;;;;;;7.07;6.57;;;7.10;20.20;;;;;;4923715;29;20188;-81
2024/02/24 00:10:53;;;;;;;7.10;6.70;;;7.10;20.50;;;;;;4938441;29;20571;-81
2024/02/24 00:13:18;;;;;;;6.73;6.33;;;7.20;20.70;;;;;;4947723;29;20506;-81
2024/02/24 00:15:44;;;;;;;6.67;6.23;;;7.10;20.40;;;;;;4950421;29;20176;-81
2024/02/24 00:18:10;;;;;;;6.77;6.37;;;7.10;20.40;;;;;;4950290;29;20180;-80
2024/02/24 00:20:35;;;;;;;6.60;6.30;;;7.20;20.30;;;;;;4949359;29;20902;-80
2024/02/24 00:23:01;;;;;;;6.77;6.37;;;7.10;20.10;;;;;;4948965;29;20423;-81
2024/02/24 00:25:26;;;;;;;6.33;6.03;;;7.10;20.70;;;;;;4925664;29;20180;-81
2024/02/24 00:27:52;;;;;;;6.40;6.00;;;7.10;20.50;;;;;;4956666;29;20175;-82
2024/02/24 00:30:17;;;;;;;6.27;5.90;;;7.10;21.30;;;;;;4948553;29;20277;-81
2024/02/24 00:32:43;;;;;;;6.80;6.47;;;7.20;20.60;;;;;;4948148;29;20648;-81
2024/02/24 00:35:09;;;;;;;6.80;6.30;;;7.20;20.60;;;;;;4942530;29;20322;-81
2024/02/24 00:37:34;;;;;;;6.90;6.40;;;7.30;20.50;;;;;;4939148;29;20345;-80
2024/02/24 00:40:00;;;;;;;6.07;5.77;;;7.40;20.40;;;;;;4940515;29;20256;-81
2024/02/24 00:42:25;;;;;;;6.53;6.10;;;7.50;20.20;;;;;;4954245;28;20195;-81
2024/02/24 00:44:51;;;;;;;6.47;6.10;;;7.60;19.90;;;;;;4958783;28;20176;-82
2024/02/24 00:47:16;;;;;;;6.60;6.30;;;7.60;19.70;;;;;;4973383;28;20194;-82
2024/02/24 00:49:42;;;;;;;6.40;6.07;;;7.60;19.80;;;;;;4958291;28;20223;-81
2024/02/24 00:52:07;;;;;;;7.03;6.57;;;7.60;20.00;;;;;;4959922;28;20288;-84
2024/02/24 00:54:33;;;;;;;7.20;6.70;;;7.60;19.70;;;;;;4937642;28;20183;-81
2024/02/24 00:56:58;;;;;;;6.57;6.27;;;7.60;19.70;;;;;;4942573;29;20546;-81
2024/02/24 00:59:24;;;;;;;7.03;6.60;;;7.50;20.00;;;;;;4943888;29;20172;-80
2024/02/24 01:01:50;;;;;;;6.73;6.33;;;7.60;20.20;;;;;;4946876;28;20195;-81
2024/02/24 01:04:15;;;;;;;6.80;6.50;;;7.60;20.20;;;;;;4946779;29;20266;-81
2024/02/24 01:06:41;;;;;;;7.00;6.67;;;7.80;20.10;;;;;;4944270;29;20175;-81
2024/02/24 01:09:06;;;;;;;6.73;6.27;;;7.90;19.70;;;;;;4943130;29;20212;-81
2024/02/24 01:11:32;;;;;;;6.00;5.60;;;7.90;19.20;;;;;;4944355;29;20204;-81
2024/02/24 01:13:58;;;;;;;7.30;6.90;;;7.90;19.60;;;;;;4947526;29;20171;-81
2024/02/24 01:16:24;;;;;;;6.57;6.27;;;7.90;19.50;;;;;;4937229;29;20266;-81
2024/02/24 01:18:49;;;;;;;6.77;6.47;;;7.90;19.40;;;;;;4936041;29;20547;-81
2024/02/24 01:21:15;;;;;;;6.63;6.33;;;7.60;20.20;;;;;;4941693;29;20199;-83
2024/02/24 01:23:41;;;;;;;5.93;5.60;;;7.50;20.70;;;;;;4945906;29;20180;-81
2024/02/24 01:26:06;;;;;;;6.83;6.53;;;7.30;20.60;;;;;;4938346;29;20205;-81
2024/02/24 01:28:34;;;;;;;6.60;6.30;;;7.20;21.10;;;;;;4915646;29;20280;-82
2024/02/24 01:30:59;;;;;;;6.57;6.27;;;7.10;21.40;;;;;;4919206;29;20700;-81
2024/02/24 01:33:28;;;;;;;6.43;6.13;;;7.00;21.40;;;;;;4937407;29;20423;-80
2024/02/24 01:35:53;;;;;;;6.50;6.20;;;7.10;21.60;;;;;;4936223;29;20188;-81
2024/02/24 01:38:21;;;;;;;6.43;6.13;;;7.20;21.10;;;;;;4935522;29;20455;-81
2024/02/24 01:40:47;;;;;;;6.80;6.40;;;7.30;21.10;;;;;;4934487;29;20200;-81
2024/02/24 01:43:26;;;;;;;6.43;6.13;;;7.30;21.40;;;;;;4935697;29;20428;-81
2024/02/24 01:45:54;;;;;;;6.53;6.33;;;7.40;21.20;;;;;;4928071;29;20282;-81
2024/02/24 01:48:19;;;;;;;6.80;6.50;;;7.30;21.50;;;;;;4937323;29;20438;-80
2024/02/24 01:50:48;;;;;;;6.77;6.37;;;7.20;21.60;;;;;;4930266;29;20956;-80
2024/02/24 01:53:16;;;;;;;7.47;7.07;;;7.30;21.90;;;;;;4937090;29;20693;-81
2024/02/24 01:55:43;;;;;;;6.57;6.27;;;7.40;22.30;;;;;;4938332;29;20754;-81
2024/02/24 01:58:09;;;;;;;6.77;6.47;;;7.40;22.30;;;;;;4934923;29;20484;-80
2024/02/24 02:00:35;;;;;;;7.27;6.87;;;7.30;22.20;;;;;;4942553;29;20475;-80
2024/02/24 02:03:01;;;;;;;6.40;6.20;;;7.30;22.20;;;;;;4939773;29;20936;-80
2024/02/24 02:05:27;;;;;;;6.80;6.60;;;7.30;22.20;;;;;;4939670;29;20432;-79
2024/02/24 02:07:56;;;;;;;7.47;6.93;;;7.30;22.20;;;;;;4935258;29;20790;-80
2024/02/24 02:10:21;;;;;;;6.57;6.17;;;7.30;22.20;;;;;;4926503;29;20220;-80
2024/02/24 02:12:47;;;;;;;7.63;6.97;;;7.40;22.30;;;;;;4945463;29;20438;-80
2024/02/24 02:15:12;;;;;;;6.13;5.93;;;7.50;22.40;;;;;;4919702;29;20280;-80
2024/02/24 02:17:38;;;;;;;6.60;6.30;;;7.50;22.40;;;;;;4928436;29;20179;-80
2024/02/24 02:20:05;;;;;;;6.43;6.03;;;7.50;23.40;;;;;;4939609;29;20191;-80
2024/02/24 02:22:31;;;;;;;5.87;5.57;;;7.50;24.20;;;;;;4936251;29;20591;-79
2024/02/24 02:24:57;;;;;;;6.50;6.10;;;7.50;24.20;;;;;;4936040;29;20432;-80
2024/02/24 02:27:22;;;;;;;7.00;6.70;;;7.60;23.90;;;;;;4918412;29;20424;-80
2024/02/24 02:29:48;;;;;;;6.70;6.40;;;7.60;24.80;;;;;;4934773;29;20669;-80
2024/02/24 02:32:14;;;;;;;7.53;7.03;;;7.50;24.90;;;;;;4932796;29;20204;-80
2024/02/24 02:34:39;;;;;;;6.60;6.13;;;7.50;25.30;;;;;;4944141;29;20179;-79
2024/02/24 02:37:10;;;;;;;6.73;6.23;;;7.30;24.90;;;;;;4917537;29;20204;-79
2024/02/24 02:39:42;;;;;;;6.93;6.63;;;7.20;25.50;;;;;;4935142;29;20185;-79
2024/02/24 02:42:09;;;;;;;6.53;6.13;;;7.20;26.50;;;;;;4919958;29;20452;-80
2024/02/24 02:44:39;;;;;;;6.87;6.57;;;7.00;26.20;;;;;;4918062;29;20180;-80
2024/02/24 02:47:05;;;;;;;6.30;6.10;;;7.00;26.40;;;;;;4937583;29;20416;-79
2024/02/24 02:49:30;;;;;;;6.53;6.33;;;7.00;26.20;;;;;;4936596;29;20877;-80
2024/02/24 02:51:58;;;;;;;6.90;6.60;;;7.00;26.50;;;;;;4951588;23;20255;-78
2024/02/24 02:54:24;;;;;;;6.70;6.40;;;6.90;26.30;;;;;;4940766;29;20192;-78
2024/02/24 02:56:49;;;;;;;6.10;5.90;;;7.00;26.60;;;;;;4936432;29;20454;-78
2024/02/24 02:59:15;;;;;;;6.70;6.40;;;7.00;26.80;;;;;;4943244;29;20192;-79
2024/02/24 03:01:47;;;;;;;6.30;6.10;;;7.00;26.60;;;;;;4934514;29;20264;-78
2024/02/24 03:04:14;;;;;;;7.27;6.97;;;6.80;26.70;;;;;;4928274;29;20188;-79
2024/02/24 03:06:40;;;;;;;6.63;6.43;;;6.80;27.00;;;;;;4929942;29;20463;-78
2024/02/24 03:09:06;;;;;;;6.40;6.20;;;6.80;27.60;;;;;;4926674;29;20440;-79
2024/02/24 03:11:31;;;;;;;6.33;6.10;;;6.80;27.10;;;;;;4926616;29;20200;-79
2024/02/24 03:13:57;;;;;;;6.40;6.20;;;6.90;27.00;;;;;;4921617;29;20185;-78
2024/02/24 03:16:23;;;;;;;7.20;7.00;;;6.90;26.70;;;;;;4922263;29;20720;-77
2024/02/24 03:18:50;;;;;;;7.03;6.63;;;6.90;26.70;;;;;;4927003;29;20433;-78
2024/02/24 03:21:29;;;;;;;6.90;6.70;;;7.00;26.70;;;;;;4919801;29;20220;-80
2024/02/24 03:24:05;;;;;;;6.93;6.60;;;7.10;26.50;;;;;;4921059;29;20500;-81
2024/02/24 03:26:31;;;;;;;6.60;6.40;;;7.00;26.60;;;;;;4919971;29;20839;-80
2024/02/24 03:28:57;;;;;;;6.83;6.63;;;7.00;26.40;;;;;;4920737;29;20488;-80
2024/02/24 03:31:23;;;;;;;7.07;6.77;;;6.90;26.70;;;;;;4919224;29;20209;-81
2024/02/24 03:33:48;;;;;;;7.07;6.67;;;7.00;27.10;;;;;;4915875;29;20229;-79
2024/02/24 03:36:15;;;;;;;7.00;6.70;;;7.10;26.60;;;;;;4917404;29;20669;-79
2024/02/24 03:38:41;;;;;;;7.57;7.27;;;7.10;26.20;;;;;;4919599;29;20219;-81
2024/02/24 03:41:08;;;;;;;7.40;7.17;;;6.80;26.90;;;;;;4920840;29;20461;-78
2024/02/24 03:43:34;;;;;;;7.03;6.83;;;6.70;27.20;;;;;;4920704;29;20429;-79
2024/02/24 03:46:00;;;;;;;6.90;6.70;;;6.80;27.10;;;;;;4919671;29;20803;-79
2024/02/24 03:48:25;;;;;;;7.20;6.90;;;6.80;27.20;;;;;;4920708;29;20437;-80
2024/02/24 03:50:51;;;;;;;6.43;6.23;;;6.90;27.50;;;;;;4918056;29;20224;-80
2024/02/24 03:53:16;;;;;;;6.70;6.50;;;6.80;26.80;;;;;;4920043;29;20209;-79
2024/02/24 03:55:42;;;;;;;7.80;7.50;;;6.80;27.20;;;;;;4922731;29;20181;-81
2024/02/24 03:58:08;;;;;;;6.63;6.43;;;6.70;27.50;;;;;;4921243;29;20684;-80
2024/02/24 04:00:34;;;;;;;6.97;6.77;;;6.60;27.70;;;;;;4929056;29;20437;-78
2024/02/24 04:03:01;;;;;;;8.60;7.93;;;6.60;27.80;;;;;;4919837;29;20200;-80
2024/02/24 04:05:27;;;;;;;7.57;7.07;;;6.60;27.90;;;;;;4919071;29;20440;-80
2024/02/24 04:07:53;;;;;;;7.07;6.77;;;6.60;27.80;;;;;;4921755;29;20439;-80
2024/02/24 04:10:18;;;;;;;6.90;6.60;;;6.60;27.60;;;;;;4920361;29;20626;-80
2024/02/24 04:12:44;;;;;;;6.90;6.60;;;6.60;27.60;;;;;;4919831;29;20208;-80
2024/02/24 04:15:12;;;;;;;6.60;6.40;;;6.60;27.60;;;;;;4917240;29;20236;-79
2024/02/24 04:17:38;;;;;;;7.20;6.97;;;6.50;27.60;;;;;;4918819;29;20188;-81
2024/02/24 04:20:04;;;;;;;6.97;6.77;;;6.60;27.60;;;;;;4918305;29;20484;-79
2024/02/24 04:22:30;;;;;;;6.53;6.33;;;6.70;27.00;;;;;;4918613;29;20213;-80
2024/02/24 04:24:55;;;;;;;6.43;6.23;;;6.70;27.40;;;;;;4917718;29;20444;-78
2024/02/24 04:27:21;;;;;;;7.13;6.83;;;6.90;26.80;;;;;;4919297;29;20189;-78
2024/02/24 04:29:46;;;;;;;6.30;6.10;;;7.00;26.30;;;;;;4916120;29;20216;-80
2024/02/24 04:32:12;;;;;;;7.20;7.00;;;7.00;26.00;;;;;;4917510;29;20208;-80
2024/02/24 04:34:38;;;;;;;6.80;6.50;;;7.00;26.00;;;;;;4919411;29;20188;-78
2024/02/24 04:37:03;;;;;;;6.80;6.50;;;7.10;25.90;;;;;;4916916;29;20660;-77
2024/02/24 04:39:29;;;;;;;6.90;6.63;;;7.20;25.70;;;;;;4917394;29;20532;-80
2024/02/24 04:41:54;;;;;;;6.50;6.30;;;7.20;25.50;;;;;;4917772;29;20212;-79
2024/02/24 04:44:20;;;;;;;6.27;6.07;;;7.30;25.20;;;;;;4917989;29;20206;-79
2024/02/24 04:46:45;;;;;;;7.33;6.93;;;7.30;25.20;;;;;;4916637;29;20189;-80
2024/02/24 04:49:11;;;;;;;6.60;6.40;;;7.10;25.60;;;;;;4929046;29;20191;-78
2024/02/24 04:51:36;;;;;;;6.73;6.43;;;7.20;25.70;;;;;;4928741;29;20204;-78
2024/02/24 04:54:02;;;;;;;6.50;6.30;;;7.20;25.60;;;;;;4917486;29;20196;-78
2024/02/24 04:56:28;;;;;;;7.00;6.80;;;7.20;25.80;;;;;;4918423;29;20173;-79
2024/02/24 04:58:53;;;;;;;6.50;6.30;;;7.40;25.70;;;;;;4924487;29;20207;-78
2024/02/24 05:01:19;;;;;;;6.53;6.23;;;7.50;24.90;;;;;;4916760;29;20216;-78
2024/02/24 05:03:44;;;;;;;6.77;6.50;;;7.80;24.50;;;;;;4918260;29;20188;-78
2024/02/24 05:06:10;;;;;;;6.67;6.47;;;8.00;23.80;;;;;;4915650;29;20220;-77
2024/02/24 05:08:35;;;;;;;6.30;6.10;;;7.90;23.20;;;;;;4916930;29;20190;-80
2024/02/24 05:11:01;;;;;;;6.70;6.50;;;7.80;23.90;;;;;;4918175;29;20594;-80
2024/02/24 05:13:27;;;;;;;6.60;6.40;;;7.50;24.30;;;;;;4916619;29;20260;-79
2024/02/24 05:15:52;;;;;;;6.43;6.23;;;7.20;25.30;;;;;;4935703;29;20232;-79
2024/02/24 05:18:18;;;;;;;7.17;6.93;;;7.00;26.00;;;;;;4917206;29;20227;-79
2024/02/24 05:20:43;;;;;;;6.70;6.50;;;7.10;25.80;;;;;;4915217;29;20724;-80
2024/02/24 05:23:09;;;;;;;6.50;6.30;;;7.20;25.50;;;;;;4913817;29;20722;-78
2024/02/24 05:25:35;;;;;;;8.00;7.60;;;7.10;25.80;;;;;;4917460;29;20193;-79
2024/02/24 05:28:01;;;;;;;7.23;6.93;;;7.20;26.10;;;;;;4917087;29;20196;-79
2024/02/24 05:30:27;;;;;;;7.70;7.50;;;7.00;26.10;;;;;;4916454;29;20483;-78
2024/02/24 05:32:52;;;;;;;6.87;6.67;;;7.10;25.90;;;;;;4921134;29;20198;-78
2024/02/24 05:35:18;;;;;;;7.27;7.07;;;7.10;26.00;;;;;;4919530;29;20561;-79
2024/02/24 05:37:43;;;;;;;7.00;6.80;;;7.00;26.20;;;;;;4921820;29;20199;-79
2024/02/24 05:40:09;;;;;;;7.50;7.20;;;7.00;26.20;;;;;;4919623;29;20248;-78
2024/02/24 05:42:35;;;;;;;7.53;7.23;;;7.10;26.20;;;;;;4918826;29;20223;-80
2024/02/24 05:45:01;;;;;;;6.80;6.60;;;7.00;26.50;;;;;;4919501;29;20433;-80
2024/02/24 05:47:27;;;;;;;6.50;6.30;;;7.10;26.50;;;;;;4922537;29;20192;-79
2024/02/24 05:49:52;;;;;;;7.10;6.80;;;7.20;25.70;;;;;;4920306;29;21062;-81
2024/02/24 05:52:18;;;;;;;7.00;6.80;;;7.20;26.00;;;;;;4921586;29;20472;-81
2024/02/24 05:54:44;;;;;;;6.90;6.70;;;7.30;26.30;;;;;;4924574;29;20603;-81
2024/02/24 05:57:09;;;;;;;6.97;6.67;;;7.30;26.10;;;;;;4927371;29;20443;-78
2024/02/24 05:59:35;;;;;;;7.00;6.70;;;7.50;25.80;;;;;;4928897;29;20221;-79
2024/02/24 06:02:01;;;;;;;7.40;7.00;;;7.70;25.30;;;;;;4919484;29;20214;-79
2024/02/24 06:04:27;;;;;;;7.03;6.73;;;7.90;24.90;;;;;;4922111;29;20185;-78
2024/02/24 06:06:52;;;;;;;7.30;7.10;;;8.00;24.30;;;;;;4933141;29;20197;-80
2024/02/24 06:09:18;;;;;;;7.63;7.33;;;7.90;24.30;;;;;;4931093;29;20201;-80
2024/02/24 06:11:43;;;;;;;7.10;6.90;;;7.80;24.40;;;;;;4922805;29;20239;-81
2024/02/24 06:14:09;;;;;;;7.83;7.53;;;7.70;24.60;;;;;;4924080;29;20622;-81
2024/02/24 06:16:34;;;;;;;7.33;7.13;;;7.40;25.00;;;;;;4922679;29;20227;-80
2024/02/24 06:19:00;;;;;;;7.90;7.70;;;7.40;25.20;;;;;;4921161;29;20225;-80
2024/02/24 06:21:27;;;;;;;8.00;7.70;;;7.10;25.80;;;;;;4921772;29;20215;-80
2024/02/24 06:23:53;;;;;;;7.80;7.50;;;7.00;26.60;;;;;;4925535;29;20275;-81
2024/02/24 06:26:18;;;;;;;7.70;7.27;;;7.10;26.40;;;;;;4926917;29;20464;-81
2024/02/24 06:28:44;;;;;;;8.17;7.77;;;7.10;26.40;;;;;;4926098;29;20193;-81
2024/02/24 06:31:09;;;;;;;8.27;7.90;;;7.10;26.40;;;;;;4924210;29;20231;-79
2024/02/24 06:33:35;;;;;;;8.00;7.70;;;7.00;26.90;;;;;;4925548;29;20263;-81
2024/02/24 06:36:02;;;;;;;8.30;8.00;;;7.10;27.70;;;;;;4927173;29;20192;-80
2024/02/24 06:38:28;;;;;;;8.33;7.93;;;6.90;26.80;;;;;;4924056;29;20291;-80
2024/02/24 06:40:53;;;;;;;8.20;7.80;;;6.80;26.90;;;;;;4923520;29;20886;-80
2024/02/24 06:43:19;;;;;;;8.03;7.77;;;6.80;27.00;;;;;;4925418;29;20345;-81
2024/02/24 06:45:45;;;;;;;7.83;7.53;;;6.70;27.40;;;;;;4924538;29;20201;-81
2024/02/24 06:48:10;;;;;;;8.50;8.10;;;6.70;27.50;;;;;;4925436;29;20192;-78
2024/02/24 06:50:36;;;;;;;7.63;7.33;;;6.60;27.90;;;;;;4920805;29;20223;-81
2024/02/24 06:53:01;;;;;;;7.73;7.43;;;6.70;28.50;;;;;;4923520;29;20386;-81
2024/02/24 06:55:27;;;;;;;7.30;7.03;;;6.80;29.00;;;;;;4922170;29;20572;-81
2024/02/24 06:57:52;;;;;;;7.83;7.20;;;6.80;28.60;;;;;;4921162;29;20192;-80
2024/02/24 07:00:18;;;;;;;6.70;6.50;;;6.80;28.70;;;;;;4922418;29;20200;-78
2024/02/24 07:02:44;;;;;;;7.30;7.00;;;6.80;28.80;;;;;;4919971;29;20240;-78
2024/02/24 07:05:09;;;;;;;6.20;6.00;;;6.90;28.00;;;;;;4921370;29;20220;-78
2024/02/24 07:07:35;;;;;;;6.83;6.63;;;6.90;28.50;;;;;;4920863;29;20227;-79
2024/02/24 07:10:04;;;;;;;6.57;6.27;;;6.80;28.20;;;;;;4920717;29;20212;-78
2024/02/24 07:12:30;;;;;;;6.87;6.67;;;6.70;28.90;;;;;;4921064;29;20231;-80
2024/02/24 07:14:55;;;;;;;7.10;6.80;;;6.60;29.00;;;;;;4920320;29;20439;-79
2024/02/24 07:17:21;;;;;;;7.30;7.10;;;6.60;29.50;;;;;;4921127;29;20428;-79
2024/02/24 07:19:47;;;;;;;7.00;6.80;;;6.50;29.20;;;;;;4919052;29;20653;-78
2024/02/24 07:22:14;;;;;;;7.53;7.33;;;6.60;29.80;;;;;;4921430;29;20204;-80
2024/02/24 07:24:40;;;;;;;7.87;7.67;;;6.80;29.40;;;;;;4921567;29;20213;-80
2024/02/24 07:27:06;;;;;;;6.93;6.73;;;6.80;29.20;;;;;;4918774;29;20440;-80
2024/02/24 07:29:31;;;;;;;8.20;7.57;;;6.80;29.10;;;;;;4918831;29;20345;-80
2024/02/24 07:31:57;;;;;;;7.03;6.83;;;6.70;29.10;;;;;;4919075;29;20212;-78
2024/02/24 07:34:23;;;;;;;7.33;7.13;;;6.80;29.80;;;;;;4918355;29;20279;-79
2024/02/24 07:36:48;;;;;;;6.73;6.53;;;6.80;29.70;;;;;;4918819;29;20192;-79
2024/02/24 07:39:14;;;;;;;8.03;7.63;;;6.60;29.80;;;;;;4918922;29;20429;-78
2024/02/24 07:41:41;;;;;;;7.07;6.87;;;6.50;30.10;;;;;;4919498;29;20201;-77
2024/02/24 07:44:07;;;;;;;7.20;6.80;;;6.50;30.00;;;;;;4920182;29;20195;-79
2024/02/24 07:46:33;;;;;;;6.60;6.40;;;6.50;30.00;;;;;;4926270;29;20442;-79
2024/02/24 07:49:00;;;;;;;7.00;6.70;;;6.60;29.30;;;;;;4921349;29;20530;-79
2024/02/24 07:51:27;;;;;;;6.30;6.10;;;6.60;28.60;;;;;;4918877;29;20279;-78
2024/02/24 07:53:53;;;;;;;6.40;6.20;;;6.60;28.80;;;;;;4918253;29;20432;-79
2024/02/24 07:56:27;;;;;;;6.17;5.97;;;6.70;28.50;;;;;;4918349;29;20432;-80
2024/02/24 07:58:53;;;;;;;6.50;6.20;;;6.60;28.30;;;;;;4903468;29;20511;-79
2024/02/24 08:01:19;;;;;;;6.97;6.77;;;6.70;28.50;;;;;;4918467;29;20448;-80
2024/02/24 08:03:45;;;;;;;6.47;6.27;;;6.80;27.60;;;;;;4918506;29;20192;-80
2024/02/24 08:06:10;;;;;;;6.30;6.10;;;6.90;27.40;;;;;;4920529;29;20458;-79
2024/02/24 08:08:45;;;;;;;6.50;6.30;;;6.90;26.60;;;;;;4919908;29;20275;-80
2024/02/24 08:11:11;;;;;;;6.13;5.87;;;7.00;26.50;;;;;;4916713;29;20226;-78
2024/02/24 08:13:41;;;;;;;5.30;5.10;;;7.00;25.60;;;;;;4919656;29;20539;-80
2024/02/24 08:16:08;;;;;;;5.53;5.43;;;6.80;25.30;;;;;;4918999;29;20203;-80
2024/02/24 08:18:35;;;;;;;6.37;6.13;;;6.80;25.30;;;;;;4918818;29;20440;-79
2024/02/24 08:21:08;;;;;;;5.40;5.20;;;6.80;25.20;;;;;;4917419;29;20843;-80
2024/02/24 08:23:34;;;;;;;5.70;5.60;;;6.90;25.00;;;;;;4926070;29;20983;-79
2024/02/24 08:26:00;;;;;;;5.63;5.50;;;6.90;24.40;;;;;;4920584;29;20428;-80
2024/02/24 08:28:25;;;;;;;5.57;5.47;;;6.90;25.00;;;;;;4923711;29;20432;-80
2024/02/24 08:30:56;;;;;;;5.50;5.30;;;6.90;25.10;;;;;;4921976;29;20735;-80
2024/02/24 08:33:22;;;;;;;5.60;5.50;;;6.80;25.70;;;;;;4918722;29;20211;-80
2024/02/24 08:35:52;;;;;;;5.47;5.37;;;6.80;25.50;;;;;;4926981;29;20456;-80
2024/02/24 08:38:18;;;;;;;6.50;6.30;;;6.80;25.70;;;;;;4920089;29;20543;-80
2024/02/24 08:40:46;;;;;;;5.60;5.20;;;6.80;25.30;;;;;;4927473;29;20476;-81
2024/02/24 08:43:12;;;;;;;6.00;5.80;;;6.90;25.70;;;;;;4926894;29;20185;-79
2024/02/24 08:45:37;;;;;;;5.60;5.40;;;6.90;25.20;;;;;;4921343;29;20444;-80
2024/02/24 08:48:03;;;;;;;5.43;5.33;;;7.00;25.50;;;;;;4917709;29;20447;-80
2024/02/24 08:50:29;;;;;;;5.80;5.60;;;7.10;25.60;;;;;;4918151;29;20219;-79
2024/02/24 08:52:54;;;;;;;5.63;5.43;;;7.30;25.30;;;;;;4920094;29;20444;-80
2024/02/24 08:55:20;;;;;;;5.00;4.80;;;7.40;23.50;;;;;;4930935;29;20203;-79
2024/02/24 08:57:45;;;;;;;5.70;5.50;;;7.50;23.80;;;;;;4933553;29;20252;-79
2024/02/24 09:00:12;;;;;;;5.30;5.20;;;7.60;23.30;;;;;;4926250;29;20656;-80
2024/02/24 09:02:38;;;;;;;5.07;4.97;;;7.70;22.40;;;;;;4930137;29;20246;-82
2024/02/24 09:05:07;;;;;;;5.50;5.40;;;7.80;22.60;;;;;;4930228;29;20435;-82
2024/02/24 09:07:46;;;;;;;5.80;5.60;;;7.90;21.80;;;;;;4932720;29;20613;-82
2024/02/24 09:10:11;;;;;;;5.23;5.13;;;8.00;21.80;;;;;;4913104;29;20484;-80
2024/02/24 09:12:37;;;;;;;5.73;5.53;;;7.90;21.40;;;;;;4921630;29;20451;-82
2024/02/24 09:15:07;;;;;;;6.20;5.90;;;8.00;21.20;;;;;;4937785;29;20184;-81
2024/02/24 09:17:33;;;;;;;5.83;5.67;;;8.00;21.60;;;;;;4935179;29;20184;-81
2024/02/24 09:20:01;;;;;;;5.20;5.10;;;8.00;21.50;;;;;;4913677;29;20457;-81
2024/02/24 09:22:27;;;;;;;4.73;4.63;;;8.00;21.50;;;;;;4931740;29;20219;-82
2024/02/24 09:24:53;;;;;;;5.30;5.10;;;8.00;21.80;;;;;;4928804;29;20978;-80
2024/02/24 09:27:20;;;;;;;5.00;4.90;;;7.90;21.60;;;;;;4935866;29;20413;-81
2024/02/24 09:29:46;;;;;;;5.40;5.30;;;7.90;21.50;;;;;;4925385;29;20212;-80
2024/02/24 09:32:12;;;;;;;5.73;5.40;;;7.90;21.30;;;;;;4922488;29;20499;-80
2024/02/24 09:34:38;;;;;;;6.50;6.30;;;8.00;21.10;;;;;;4923046;29;20192;-79
2024/02/24 09:37:05;;;;;;;6.10;5.90;;;8.20;20.70;;;;;;4922667;29;20556;-80
2024/02/24 09:39:31;;;;;;;5.90;5.70;;;8.20;20.70;;;;;;4923025;29;20764;-81
2024/02/24 09:42:02;;;;;;;5.80;5.60;;;8.30;21.10;;;;;;4923542;29;20472;-80
2024/02/24 09:44:29;;;;;;;5.50;5.30;;;8.40;20.50;;;;;;4926663;29;20427;-81
2024/02/24 09:46:57;;;;;;;5.30;5.10;;;8.50;20.40;;;;;;4921420;29;20819;-79
2024/02/24 09:49:27;;;;;;;5.70;5.50;;;8.50;19.70;;;;;;4927272;29;20945;-82
2024/02/24 09:51:53;;;;;;;5.23;5.10;;;8.70;20.20;;;;;;4917074;29;20469;-80
2024/02/24 09:54:19;;;;;;;5.40;5.20;;;8.70;18.60;;;;;;4927139;29;20532;-81
2024/02/24 09:56:47;;;;;;;5.40;5.30;;;8.80;18.90;;;;;;4914973;29;20220;-77
2024/02/24 09:59:14;;;;;;;16.83;15.80;;;9.00;18.30;;;;;;4924150;29;20172;-80
2024/02/24 10:01:54;;;;;;;5.43;5.13;;;9.00;17.40;;;;;;4930875;29;20428;-79
2024/02/24 10:04:20;;;;;;;6.07;5.87;;;8.90;18.00;;;;;;4906432;29;20420;-79
2024/02/24 10:06:45;;;;;;;5.70;5.60;;;9.00;18.00;;;;;;4931037;29;20420;-77
2024/02/24 10:09:12;;;;;;;5.53;5.23;;;9.10;17.50;;;;;;4929783;29;20420;-78
2024/02/24 10:11:39;;;;;;;5.20;5.10;;;9.20;17.30;;;;;;4928412;29;20228;-79
2024/02/24 10:14:05;;;;;;;5.33;5.23;;;9.30;15.60;;;;;;4924222;29;20417;-78
2024/02/24 10:16:37;;;;;;;5.67;5.47;;;9.20;16.00;;;;;;4926705;29;20463;-79
2024/02/24 10:19:04;;;;;;;5.10;5.00;;;9.30;16.70;;;;;;4924928;29;20212;-79
2024/02/24 10:21:30;;;;;;;5.30;5.10;;;9.30;15.20;;;;;;4924668;29;20467;-78
2024/02/24 10:23:55;;;;;;;5.30;5.20;;;9.40;15.30;;;;;;4933423;29;20452;-79
2024/02/24 10:26:23;;;;;;;5.73;5.53;;;9.40;14.70;;;;;;4932366;29;20192;-77
2024/02/24 10:28:53;;;;;;;4.70;4.50;;;9.50;14.90;;;;;;4925260;29;20686;-78
2024/02/24 10:31:19;;;;;;;5.77;5.57;;;9.50;14.40;;;;;;4925313;29;20822;-77
2024/02/24 10:33:52;;;;;;;4.37;4.27;;;9.60;14.40;;;;;;4934188;29;20408;-79
2024/02/24 10:36:34;;;;;;;5.17;4.93;;;9.70;13.50;;;;;;4914101;29;20421;-78
2024/02/24 10:39:01;;;;;;;4.63;4.53;;;9.60;13.10;;;;;;4920360;29;20424;-80
2024/02/24 10:41:28;;;;;;;5.37;5.00;;;9.60;13.90;;;;;;4924409;29;20450;-77
2024/02/24 10:43:55;;;;;;;4.90;4.80;;;9.80;13.70;;;;;;4928754;29;20417;-78
2024/02/24 10:46:20;;;;;;;5.20;5.10;;;10.00;11.50;;;;;;4930035;29;20443;-80
2024/02/24 10:48:46;;;;;;;4.70;4.60;;;9.90;12.20;;;;;;4922495;29;20858;-77
2024/02/24 10:51:13;;;;;;;5.30;5.10;;;9.90;11.70;;;;;;4922352;29;20686;-78
2024/02/24 10:53:42;;;;;;;5.10;4.90;;;9.80;11.30;;;;;;4927829;29;20200;-78
2024/02/24 10:56:09;;;;;;;4.70;4.60;;;9.90;11.80;;;;;;4925552;29;20425;-79
2024/02/24 10:58:35;;;;;;;5.47;5.30;;;9.80;11.60;;;;;;4929422;29;20833;-78
2024/02/24 11:01:01;;;;;;;5.10;4.90;;;9.80;12.50;;;;;;4930192;29;20507;-78
2024/02/24 11:03:26;;;;;;;4.63;4.53;;;9.80;12.30;;;;;;4927591;29;20185;-79
2024/02/24 11:05:55;;;;;;;5.03;4.83;;;9.80;11.40;;;;;;4929489;29;20439;-79
2024/02/24 11:08:36;;;;;;;4.80;4.70;;;9.80;11.30;;;;;;4926825;29;20243;-79
2024/02/24 11:11:10;;;;;;;5.63;5.33;;;9.80;11.30;;;;;;4926002;29;20837;-79
2024/02/24 11:13:36;;;;;;;5.00;4.90;;;9.80;11.70;;;;;;4935817;29;20437;-78
2024/02/24 11:16:06;;;;;;;4.93;4.77;;;9.80;11.50;;;;;;4922736;29;20528;-80
2024/02/24 11:18:51;;;;;;;5.60;5.30;;;9.80;11.30;;;;;;4923474;29;20475;-78
2024/02/24 11:21:17;;;;;;;4.90;4.70;;;9.80;11.30;;;;;;4917693;29;20475;-80
2024/02/24 11:23:44;;;;;;;4.97;4.77;;;9.90;11.30;;;;;;4927418;29;20425;-78
2024/02/24 11:26:14;;;;;;;4.30;4.20;;;10.00;10.70;;;;;;4922619;29;20469;-77
2024/02/24 11:29:08;;;;;;;4.53;4.43;;;9.90;10.40;;;;;;4930863;29;20867;-78
2024/02/24 11:31:35;;;;;;;4.90;4.70;;;9.80;10.50;;;;;;4921435;29;21019;-77
2024/02/24 11:34:06;;;;;;;4.63;4.43;;;9.90;10.50;;;;;;4925637;29;20429;-78
2024/02/24 11:36:34;;;;;;;5.23;5.03;;;9.80;10.50;;;;;;4914571;29;20432;-79
2024/02/24 11:39:02;;;;;;;4.57;4.47;;;9.90;10.90;;;;;;4916211;29;20453;-77
2024/02/24 11:41:31;;;;;;;4.50;4.40;;;9.90;10.40;;;;;;4920030;29;20559;-78
2024/02/24 11:43:56;;;;;;;4.57;4.47;;;9.80;10.50;;;;;;4941982;29;20455;-78
2024/02/24 11:46:23;;;;;;;5.30;5.20;;;9.70;10.60;;;;;;4928729;29;20433;-80
2024/02/24 11:48:53;;;;;;;5.60;5.40;;;9.70;11.50;;;;;;4927403;29;20595;-80
2024/02/24 11:51:19;;;;;;;5.00;4.80;;;9.70;11.20;;;;;;4924237;29;20504;-78
2024/02/24 11:53:47;;;;;;;5.00;4.80;;;9.60;11.20;;;;;;4921792;29;20434;-77
2024/02/24 11:56:13;;;;;;;5.80;5.60;;;9.70;11.10;;;;;;4924982;29;20429;-79
2024/02/24 11:58:39;;;;;;;5.13;5.03;;;9.70;10.20;;;;;;4928796;29;20433;-78
2024/02/24 12:01:05;;;;;;;5.80;5.60;;;9.70;9.90;;;;;;4923224;29;20474;-77
2024/02/24 12:03:31;;;;;;;6.40;6.20;;;9.70;10.90;;;;;;4919762;29;20524;-80
2024/02/24 12:06:03;;;;;;;5.87;5.67;;;9.60;11.20;;;;;;4921784;29;20452;-79
2024/02/24 12:08:29;;;;;;;5.50;5.30;;;9.60;11.70;;;;;;4917026;29;20180;-79
2024/02/24 12:10:55;;;;;;;5.13;5.03;;;9.80;11.70;;;;;;4920414;29;20829;-80
2024/02/24 12:13:21;;;;;;;5.40;5.10;;;9.80;11.70;;;;;;4920471;29;20573;-80
2024/02/24 12:15:46;;;;;;;4.57;4.37;;;9.80;11.50;;;;;;4917836;29;20661;-79
2024/02/24 12:18:12;;;;;;;5.00;4.80;;;9.90;11.80;;;;;;4923664;29;20184;-79
2024/02/24 12:20:41;;;;;;;5.30;5.10;;;10.00;10.50;;;;;;4922325;29;20256;-78
2024/02/24 12:23:08;;;;;;;5.77;5.47;;;10.00;10.30;;;;;;4921362;29;20484;-79
2024/02/24 12:25:34;;;;;;;4.30;4.20;;;10.10;10.30;;;;;;4924525;29;20544;-79
2024/02/24 12:28:04;;;;;;;4.90;4.80;;;10.10;10.60;;;;;;4924058;29;20430;-78
2024/02/24 12:30:38;;;;;;;5.63;5.33;;;10.00;10.50;;;;;;4915007;29;20551;-78
2024/02/24 12:33:04;;;;;;;5.10;5.00;;;10.10;10.20;;;;;;4934089;29;20412;-79
2024/02/24 12:35:30;;;;;;;5.07;4.67;;;10.10;10.20;;;;;;4924432;29;20427;-78
2024/02/24 12:37:56;;;;;;;5.50;5.30;;;10.20;9.90;;;;;;4913054;29;20437;-79
2024/02/24 12:40:27;;;;;;;5.20;5.00;;;10.20;9.70;;;;;;4928307;29;20419;-78
2024/02/24 12:42:56;;;;;;;5.10;4.90;;;10.20;9.70;;;;;;4926938;29;20523;-78
2024/02/24 12:45:22;;;;;;;4.80;4.70;;;10.20;10.20;;;;;;4920503;29;20464;-78
2024/02/24 12:47:51;;;;;;;5.30;5.10;;;10.20;9.80;;;;;;4944933;29;20431;-77
2024/02/24 12:50:18;;;;;;;5.67;5.47;;;10.30;9.90;;;;;;4929959;29;20494;-78
2024/02/24 12:52:47;;;;;;;5.30;5.10;;;10.30;10.00;;;;;;4932760;29;20484;-80
2024/02/24 12:55:13;;;;;;;5.00;4.80;;;10.30;10.50;;;;;;4931511;29;20428;-79